Ana Sayfa
METAR-TAF:

METAR-TAF

Havaalanları :

Santa Ana del Yacuma, Bolivya

Enlem: 13-46S, Boylam: 065-26W, yükseklik: 144 m

Güncel hava durumu gözlemi

Rapor saat 23:00 UTC de 1 saat ve 8 dakika önce yapıldı.
Sakin rüzgar
Sıcaklık 29°C
Nem 58%
Basınç 1010 hPa
Görüş mesafesi: 5000 m
Duman

METAR: SLSA 242300Z 00000KT 5000 FU NSC 29/20 Q1010

Saat: 20:08 (00:08 UTC)


TAF: eksik

4.000'den fazla havaalanı için hava durumu gözlemleri ve tahminleri (METAR ve TAF raporları).

Kullanılabilir istasyonlar harita üzerinde sarı ve kırmızı noktalarla gösterilir.

İstasyonun adını görmek için fareyi noktanın üzerinde gezdirin.

Sonrasında hava gözlem ve tahminlerini görmek için tıklayın.

Haritayı değiştirmek için: yaklaştırmak için siyah artı işaretli yeşil düğmeye ve uzaklaştırmak için de eksi işaretli düğmeye hızla tıklayın; bitişik haritalar için yeşil okları kullanın.


METAR-TAF: